Main page
METAR-TAF:

METAR-TAF

Airports :

Usiminas Airport

Ipatinga, Minas Gerais, Brazil

latitude: 19-28-14S, longitude: 042-29-17W, elevation: 239 m

Current weather observation

The report was made 11 hours and 25 minutes ago, at 20:00 UTC
Wind 3 kt from the Northeast
Temperature 33°C
Humidity 41%
Pressure 1015 hPa
Visibility 10 km or more
no clouds below 1500 m and no cumulonimbus

METAR: SBIP 152000Z 04003KT CAVOK 33/18 Q1015

Time: 05:25 (07:25 UTC)


TAF: missing

Weather observations and forecasts of more than 4000 airports (METAR and TAF reports).

The available stations are represented by yellow and red dots on the map.

Hover mouse over dot to see the name of the station.

Then click to see weather observations and forecasts.

To change the map : click on the green buttons with a black cross to zoom in, on the green button with a dash to zoom out, or on the green arrows for adjacent maps.


METAR-TAF: